Terminal Aerodrome Forecast
Issued by NWS

Home | Current Version | Previous Version | Text Only | Print | Product List | Glossary Off
Versions: 1 2 3 4 5 6 7 8 9 10 11 12 13 14 15 16 17

000
FTUS43 KIWX 200903 AAA
TAFSBN
TAF AMD
KSBN 200903Z 2009/2106 VRB03KT P6SM SCT250
     FM201100 13007KT 3SM BR BKN250
     FM201500 14007KT 6SM BR BKN150
     FM201800 15011KT P6SM SCT250
     FM210500 18013G22KT P6SM OVC150=

USA.gov is the U.S. government's official web portal to all federal, state and local government web resources and services.